TimeEDT,TemperatureF,Dew PointF,Humidity,Sea Level PressureIn,VisibilityMPH,Wind Direction,Wind SpeedMPH,Gust SpeedMPH,PrecipitationIn,Events,Conditions,WindDirDegrees,DateUTC
12:53 AM,39.0,36.0,89,29.94,10.0,Calm,Calm,-,N/A,,Clear,0,2012-10-17 04:53:00
1:53 AM,41.0,37.9,89,29.94,8.0,Calm,Calm,-,N/A,,Clear,0,2012-10-17 05:53:00
2:53 AM,39.0,36.0,89,29.95,9.0,West,3.5,-,N/A,,Clear,270,2012-10-17 06:53:00
3:53 AM,39.9,37.0,89,29.95,7.0,Calm,Calm,-,N/A,,Clear,0,2012-10-17 07:53:00
4:53 AM,37.0,34.0,89,29.96,6.0,ENE,3.5,-,N/A,,Clear,60,2012-10-17 08:53:00
5:53 AM,36.0,34.0,93,29.97,4.0,ENE,3.5,-,N/A,,Clear,70,2012-10-17 09:53:00
6:53 AM,37.9,35.1,89,29.99,6.0,Calm,Calm,-,N/A,,Clear,0,2012-10-17 10:53:00
7:53 AM,37.0,35.1,93,30.00,4.0,Calm,Calm,-,N/A,,Clear,0,2012-10-17 11:53:00
8:53 AM,43.0,39.0,86,30.02,4.0,Calm,Calm,-,N/A,,Clear,0,2012-10-17 12:53:00
9:53 AM,46.0,42.1,86,30.03,6.0,Calm,Calm,-,N/A,,Clear,0,2012-10-17 13:53:00
10:53 AM,52.0,42.1,69,30.02,9.0,Calm,Calm,-,N/A,,Clear,0,2012-10-17 14:53:00
11:53 AM,57.0,41.0,55,30.01,10.0,South,4.6,-,N/A,,Clear,170,2012-10-17 15:53:00
12:53 PM,59.0,39.0,48,29.99,10.0,SW,4.6,-,N/A,,Clear,220,2012-10-17 16:53:00
1:53 PM,61.0,37.9,42,29.96,10.0,Calm,Calm,-,N/A,,Clear,0,2012-10-17 17:53:00
2:53 PM,61.0,39.9,46,29.95,10.0,SSE,6.9,-,N/A,,Clear,160,2012-10-17 18:53:00
3:53 PM,60.1,42.1,51,29.95,10.0,SSW,3.5,-,N/A,,Clear,200,2012-10-17 19:53:00
4:53 PM,61.0,43.0,52,29.94,10.0,South,5.8,-,N/A,,Clear,190,2012-10-17 20:53:00
5:53 PM,60.1,43.0,53,29.94,10.0,South,6.9,-,N/A,,Clear,170,2012-10-17 21:53:00
6:53 PM,54.0,45.0,72,29.95,10.0,SSE,5.8,-,N/A,,Clear,150,2012-10-17 22:53:00
7:53 PM,52.0,44.1,74,29.96,10.0,Calm,Calm,-,N/A,,Clear,0,2012-10-17 23:53:00
8:53 PM,50.0,44.1,80,29.97,8.0,Calm,Calm,-,N/A,,Clear,0,2012-10-18 00:53:00
9:53 PM,46.9,43.0,86,29.97,7.0,East,4.6,-,N/A,,Clear,90,2012-10-18 01:53:00
10:53 PM,46.0,42.1,86,29.97,7.0,East,3.5,-,N/A,,Clear,80,2012-10-18 02:53:00
11:53 PM,45.0,42.1,90,29.96,7.0,ENE,4.6,-,N/A,,Clear,70,2012-10-18 03:53:00